sensor_id;sensor_type;location;lat;lon;timestamp;pressure;altitude;pressure_sealevel;temperature;humidity
57574;BME280;68988;49.000;21.242;2023-11-19T00:01:40;99087.41;;;21.98;39.95
57574;BME280;68988;49.000;21.242;2023-11-19T00:04:05;99079.63;;;21.96;39.96
57574;BME280;68988;49.000;21.242;2023-11-19T00:06:31;99096.50;;;21.97;40.15
57574;BME280;68988;49.000;21.242;2023-11-19T00:08:56;99094.84;;;21.96;40.18
57574;BME280;68988;49.000;21.242;2023-11-19T00:11:21;99090.31;;;21.96;40.02
57574;BME280;68988;49.000;21.242;2023-11-19T00:13:47;99096.50;;;21.97;39.92
57574;BME280;68988;49.000;21.242;2023-11-19T00:16:14;99094.38;;;21.99;40.07
57574;BME280;68988;49.000;21.242;2023-11-19T00:18:40;99089.03;;;21.99;39.85
57574;BME280;68988;49.000;21.242;2023-11-19T00:21:06;99084.97;;;21.96;39.98
57574;BME280;68988;49.000;21.242;2023-11-19T00:23:34;99085.56;;;21.98;40.13
57574;BME280;68988;49.000;21.242;2023-11-19T00:26:00;99090.31;;;21.96;40.17
57574;BME280;68988;49.000;21.242;2023-11-19T00:28:25;99088.47;;;21.97;40.05
57574;BME280;68988;49.000;21.242;2023-11-19T00:30:51;99090.31;;;21.96;40.10
57574;BME280;68988;49.000;21.242;2023-11-19T00:33:16;99090.31;;;21.96;40.08
57574;BME280;68988;49.000;21.242;2023-11-19T00:35:42;99088.22;;;21.98;39.89
57574;BME280;68988;49.000;21.242;2023-11-19T00:38:08;99087.66;;;21.96;39.90
57574;BME280;68988;49.000;21.242;2023-11-19T00:40:33;99080.47;;;21.97;40.08
57574;BME280;68988;49.000;21.242;2023-11-19T00:42:59;99079.63;;;21.96;40.06
57574;BME280;68988;49.000;21.242;2023-11-19T00:45:24;99081.81;;;21.99;40.04
57574;BME280;68988;49.000;21.242;2023-11-19T00:47:50;99080.72;;;21.95;40.02
57574;BME280;68988;49.000;21.242;2023-11-19T00:50:16;99076.97;;;21.96;39.90
57574;BME280;68988;49.000;21.242;2023-11-19T00:52:41;99082.31;;;21.96;39.88
57574;BME280;68988;49.000;21.242;2023-11-19T00:55:07;99076.16;;;21.96;39.93
57574;BME280;68988;49.000;21.242;2023-11-19T00:57:32;99070.59;;;21.97;39.92
57574;BME280;68988;49.000;21.242;2023-11-19T00:59:59;99067.13;;;21.97;40.02
57574;BME280;68988;49.000;21.242;2023-11-19T01:02:24;99069.53;;;21.98;39.82
57574;BME280;68988;49.000;21.242;2023-11-19T01:04:50;99066.03;;;21.98;39.91
57574;BME280;68988;49.000;21.242;2023-11-19T01:07:15;99067.66;;;21.99;40.14
57574;BME280;68988;49.000;21.242;2023-11-19T01:09:42;99066.03;;;21.98;40.01
57574;BME280;68988;49.000;21.242;2023-11-19T01:12:07;99066.88;;;21.98;39.96
57574;BME280;68988;49.000;21.242;2023-11-19T01:14:34;99066.88;;;21.98;40.18
57574;BME280;68988;49.000;21.242;2023-11-19T01:17:00;99061.53;;;21.98;40.01
57574;BME280;68988;49.000;21.242;2023-11-19T01:19:26;99056.19;;;21.98;40.02
57574;BME280;68988;49.000;21.242;2023-11-19T01:21:53;99051.88;;;21.97;39.89
57574;BME280;68988;49.000;21.242;2023-11-19T01:24:19;99053.53;;;21.98;39.74
57574;BME280;68988;49.000;21.242;2023-11-19T01:26:44;99053.53;;;21.98;39.94
57574;BME280;68988;49.000;21.242;2023-11-19T01:29:13;99043.63;;;21.99;39.90
57574;BME280;68988;49.000;21.242;2023-11-19T01:31:40;99042.25;;;21.96;39.82
57574;BME280;68988;49.000;21.242;2023-11-19T01:34:06;99035.88;;;21.97;39.97
57574;BME280;68988;49.000;21.242;2023-11-19T01:36:31;99031.56;;;21.96;40.04
57574;BME280;68988;49.000;21.242;2023-11-19T01:38:56;99022.53;;;21.97;39.96
57574;BME280;68988;49.000;21.242;2023-11-19T01:41:22;99021.97;;;21.95;40.18
57574;BME280;68988;49.000;21.242;2023-11-19T01:43:47;99017.44;;;21.96;39.78
57574;BME280;68988;49.000;21.242;2023-11-19T01:46:12;99007.00;;;21.94;39.97
57574;BME280;68988;49.000;21.242;2023-11-19T01:48:42;99007.53;;;21.96;39.76
57574;BME280;68988;49.000;21.242;2023-11-19T01:51:09;99004.88;;;21.96;39.73
57574;BME280;68988;49.000;21.242;2023-11-19T01:53:36;98997.09;;;21.95;39.96
57574;BME280;68988;49.000;21.242;2023-11-19T01:56:05;98998.72;;;21.96;39.97
57574;BME280;68988;49.000;21.242;2023-11-19T01:58:35;98996.06;;;21.96;39.88
57574;BME280;68988;49.000;21.242;2023-11-19T02:01:00;99004.88;;;21.96;39.91
57574;BME280;68988;49.000;21.242;2023-11-19T02:03:30;98999.53;;;21.96;39.90
57574;BME280;68988;49.000;21.242;2023-11-19T02:05:56;98993.16;;;21.97;39.87
57574;BME280;68988;49.000;21.242;2023-11-19T02:08:23;98997.69;;;21.97;39.75
57574;BME280;68988;49.000;21.242;2023-11-19T02:10:48;98994.19;;;21.96;39.90
57574;BME280;68988;49.000;21.242;2023-11-19T02:13:13;98994.78;;;21.98;39.71
57574;BME280;68988;49.000;21.242;2023-11-19T02:15:40;98985.13;;;21.97;39.77
57574;BME280;68988;49.000;21.242;2023-11-19T02:18:26;98983.03;;;21.99;39.95
57574;BME280;68988;49.000;21.242;2023-11-19T02:20:55;98987.81;;;21.97;39.78
57574;BME280;68988;49.000;21.242;2023-11-19T02:23:21;98980.59;;;21.98;39.88
57574;BME280;68988;49.000;21.242;2023-11-19T02:28:36;98971.22;;;21.95;39.73
57574;BME280;68988;49.000;21.242;2023-11-19T02:31:02;98965.91;;;21.95;39.88
57574;BME280;68988;49.000;21.242;2023-11-19T02:33:29;98953.09;;;21.97;39.72
57574;BME280;68988;49.000;21.242;2023-11-19T02:35:55;98952.28;;;21.97;39.84
57574;BME280;68988;49.000;21.242;2023-11-19T02:38:20;98953.09;;;21.97;39.81
57574;BME280;68988;49.000;21.242;2023-11-19T02:40:47;98943.47;;;21.96;39.97
57574;BME280;68988;49.000;21.242;2023-11-19T02:43:12;98954.97;;;21.97;39.83
57574;BME280;68988;49.000;21.242;2023-11-19T02:45:38;98956.31;;;21.99;39.62
57574;BME280;68988;49.000;21.242;2023-11-19T02:48:04;98944.03;;;21.98;39.95
57574;BME280;68988;49.000;21.242;2023-11-19T02:50:31;98946.13;;;21.96;39.69
57574;BME280;68988;49.000;21.242;2023-11-19T02:52:57;98939.19;;;21.95;39.92
57574;BME280;68988;49.000;21.242;2023-11-19T02:55:23;98940.78;;;21.96;39.84
57574;BME280;68988;49.000;21.242;2023-11-19T02:57:49;98947.75;;;21.97;39.74
57574;BME280;68988;49.000;21.242;2023-11-19T03:00:19;98948.56;;;21.98;39.81
57574;BME280;68988;49.000;21.242;2023-11-19T03:02:49;98937.88;;;21.98;39.82
57574;BME280;68988;49.000;21.242;2023-11-19T03:05:24;98924.78;;;21.96;40.03
57574;BME280;68988;49.000;21.242;2023-11-19T03:07:49;98920.25;;;21.97;40.07
57574;BME280;68988;49.000;21.242;2023-11-19T03:10:15;98912.00;;;21.98;39.57
57574;BME280;68988;49.000;21.242;2023-11-19T03:12:40;98898.91;;;21.97;39.78
57574;BME280;68988;49.000;21.242;2023-11-19T03:15:06;98904.78;;;21.99;39.71
57574;BME280;68988;49.000;21.242;2023-11-19T03:17:32;98910.38;;;21.97;39.63
57574;BME280;68988;49.000;21.242;2023-11-19T03:19:59;98909.31;;;21.98;39.68
57574;BME280;68988;49.000;21.242;2023-11-19T03:22:24;98899.69;;;21.97;39.83
57574;BME280;68988;49.000;21.242;2023-11-19T03:24:52;98892.47;;;21.98;39.71
57574;BME280;68988;49.000;21.242;2023-11-19T03:27:18;98895.16;;;21.98;39.74
57574;BME280;68988;49.000;21.242;2023-11-19T03:29:43;98899.69;;;21.97;39.76
57574;BME280;68988;49.000;21.242;2023-11-19T03:32:08;98896.22;;;21.97;39.62
57574;BME280;68988;49.000;21.242;2023-11-19T03:34:34;98890.88;;;21.97;40.04
57574;BME280;68988;49.000;21.242;2023-11-19T03:36:59;98886.88;;;21.99;39.61
57574;BME280;68988;49.000;21.242;2023-11-19T03:39:25;98891.44;;;21.99;39.90
57574;BME280;68988;49.000;21.242;2023-11-19T03:41:50;98882.03;;;21.96;39.90
57574;BME280;68988;49.000;21.242;2023-11-19T03:44:16;98874.88;;;21.97;39.69
57574;BME280;68988;49.000;21.242;2023-11-19T03:46:41;98877.53;;;21.97;39.68
57574;BME280;68988;49.000;21.242;2023-11-19T03:49:07;98858.00;;;21.96;39.76
57574;BME280;68988;49.000;21.242;2023-11-19T03:51:32;98856.41;;;21.95;39.70
57574;BME280;68988;49.000;21.242;2023-11-19T03:53:57;98849.47;;;21.94;39.73
57574;BME280;68988;49.000;21.242;2023-11-19T03:56:24;98856.41;;;21.95;39.82
57574;BME280;68988;49.000;21.242;2023-11-19T03:58:49;98857.22;;;21.96;39.79
57574;BME280;68988;49.000;21.242;2023-11-19T04:01:15;98855.34;;;21.96;39.59
57574;BME280;68988;49.000;21.242;2023-11-19T04:03:40;98850.00;;;21.96;39.99
57574;BME280;68988;49.000;21.242;2023-11-19T04:06:06;98858.84;;;21.97;39.84
57574;BME280;68988;49.000;21.242;2023-11-19T04:08:31;98860.69;;;21.96;39.75
57574;BME280;68988;49.000;21.242;2023-11-19T04:10:56;98859.88;;;21.96;39.79
57574;BME280;68988;49.000;21.242;2023-11-19T04:13:22;98857.47;;;21.94;39.77
57574;BME280;68988;49.000;21.242;2023-11-19T04:15:49;98872.44;;;21.95;39.52
57574;BME280;68988;49.000;21.242;2023-11-19T04:18:15;98881.25;;;21.96;39.67
57574;BME280;68988;49.000;21.242;2023-11-19T04:20:40;98871.38;;;21.96;39.56
57574;BME280;68988;49.000;21.242;2023-11-19T04:23:07;98869.53;;;21.97;39.71
57574;BME280;68988;49.000;21.242;2023-11-19T04:25:33;98860.69;;;21.96;39.96
57574;BME280;68988;49.000;21.242;2023-11-19T04:27:58;98858.84;;;21.97;39.39
57574;BME280;68988;49.000;21.242;2023-11-19T04:30:23;98843.63;;;21.97;39.48
57574;BME280;68988;49.000;21.242;2023-11-19T04:32:49;98833.97;;;21.96;39.63
57574;BME280;68988;49.000;21.242;2023-11-19T04:35:14;98831.56;;;21.95;39.82
57574;BME280;68988;49.000;21.242;2023-11-19T04:37:41;98842.00;;;21.96;39.56
57574;BME280;68988;49.000;21.242;2023-11-19T04:40:08;98835.59;;;21.97;39.65
57574;BME280;68988;49.000;21.242;2023-11-19T04:42:35;98820.38;;;21.98;39.62
57574;BME280;68988;49.000;21.242;2023-11-19T04:45:00;98803.56;;;21.97;39.59
57574;BME280;68988;49.000;21.242;2023-11-19T04:47:25;98809.72;;;21.98;39.74
57574;BME280;68988;49.000;21.242;2023-11-19T04:49:51;98803.56;;;21.97;39.70
57574;BME280;68988;49.000;21.242;2023-11-19T04:52:16;98805.19;;;21.98;39.45
57574;BME280;68988;49.000;21.242;2023-11-19T04:54:42;98804.63;;;21.96;39.62
57574;BME280;68988;49.000;21.242;2023-11-19T04:57:08;98805.44;;;21.97;39.62
57574;BME280;68988;49.000;21.242;2023-11-19T04:59:36;98795.00;;;21.95;39.64
57574;BME280;68988;49.000;21.242;2023-11-19T05:02:02;98782.47;;;21.96;39.53
57574;BME280;68988;49.000;21.242;2023-11-19T05:04:29;98786.75;;;21.97;39.70
57574;BME280;68988;49.000;21.242;2023-11-19T05:06:54;98791.25;;;21.96;39.70
57574;BME280;68988;49.000;21.242;2023-11-19T05:09:20;98794.75;;;21.97;39.55
57574;BME280;68988;49.000;21.242;2023-11-19T05:11:45;98785.91;;;21.96;39.57
57574;BME280;68988;49.000;21.242;2023-11-19T05:14:10;98785.91;;;21.96;39.44
57574;BME280;68988;49.000;21.242;2023-11-19T05:16:36;98785.91;;;21.96;39.53
57574;BME280;68988;49.000;21.242;2023-11-19T05:19:01;98778.75;;;21.97;39.50
57574;BME280;68988;49.000;21.242;2023-11-19T05:21:26;98769.91;;;21.96;39.71
57574;BME280;68988;49.000;21.242;2023-11-19T05:23:52;98754.47;;;21.98;39.58
57574;BME280;68988;49.000;21.242;2023-11-19T05:26:21;98742.94;;;21.98;39.50
57574;BME280;68988;49.000;21.242;2023-11-19T05:28:47;98742.41;;;21.96;39.52
57574;BME280;68988;49.000;21.242;2023-11-19T05:31:12;98736.81;;;21.97;39.57
57574;BME280;68988;49.000;21.242;2023-11-19T05:33:38;98727.19;;;21.96;39.60
57574;BME280;68988;49.000;21.242;2023-11-19T05:36:04;98722.66;;;21.97;39.42
57574;BME280;68988;49.000;21.242;2023-11-19T05:38:30;98719.75;;;21.98;39.58
57574;BME280;68988;49.000;21.242;2023-11-19T05:40:56;98717.34;;;21.97;39.39
57574;BME280;68988;49.000;21.242;2023-11-19T05:43:21;98728.25;;;21.95;39.53
57574;BME280;68988;49.000;21.242;2023-11-19T05:45:47;98737.06;;;21.96;39.53
57574;BME280;68988;49.000;21.242;2023-11-19T05:48:12;98745.63;;;21.98;39.43
57574;BME280;68988;49.000;21.242;2023-11-19T05:50:38;98737.88;;;21.96;39.56
57574;BME280;68988;49.000;21.242;2023-11-19T05:53:04;98737.06;;;21.96;39.63
57574;BME280;68988;49.000;21.242;2023-11-19T05:55:38;98739.50;;;21.97;39.62
57574;BME280;68988;49.000;21.242;2023-11-19T05:58:25;98746.69;;;21.97;39.65
57574;BME280;68988;49.000;21.242;2023-11-19T06:00:51;98739.75;;;21.96;39.52
57574;BME280;68988;49.000;21.242;2023-11-19T06:03:17;98736.28;;;21.95;39.51
57574;BME280;68988;49.000;21.242;2023-11-19T06:05:44;98737.38;;;21.99;39.36
57574;BME280;68988;49.000;21.242;2023-11-19T06:08:11;98740.03;;;21.99;39.37
57574;BME280;68988;49.000;21.242;2023-11-19T06:10:39;98753.63;;;21.98;39.44
57574;BME280;68988;49.000;21.242;2023-11-19T06:13:04;98752.59;;;21.99;39.68
57574;BME280;68988;49.000;21.242;2023-11-19T06:15:30;98747.25;;;21.99;39.35
57574;BME280;68988;49.000;21.242;2023-11-19T06:17:56;98768.84;;;21.97;39.44
57574;BME280;68988;49.000;21.242;2023-11-19T06:20:25;98759.81;;;21.98;39.52
57574;BME280;68988;49.000;21.242;2023-11-19T06:22:50;98754.72;;;21.97;39.36
57574;BME280;68988;49.000;21.242;2023-11-19T06:25:15;98760.84;;;21.97;39.42
57574;BME280;68988;49.000;21.242;2023-11-19T06:27:42;98758.72;;;21.99;39.37
57574;BME280;68988;49.000;21.242;2023-11-19T06:30:08;98757.38;;;21.97;39.50
57574;BME280;68988;49.000;21.242;2023-11-19T06:32:34;98743.78;;;21.98;39.45
57574;BME280;68988;49.000;21.242;2023-11-19T06:34:59;98742.16;;;21.97;39.45
57574;BME280;68988;49.000;21.242;2023-11-19T06:37:24;98736.81;;;21.97;39.67
57574;BME280;68988;49.000;21.242;2023-11-19T06:39:50;98740.03;;;21.99;39.53
57574;BME280;68988;49.000;21.242;2023-11-19T06:42:15;98727.75;;;21.98;39.44
57574;BME280;68988;49.000;21.242;2023-11-19T06:44:40;98729.34;;;21.99;39.58
57574;BME280;68988;49.000;21.242;2023-11-19T06:47:06;98736.84;;;22.03;39.50
57574;BME280;68988;49.000;21.242;2023-11-19T06:49:31;98726.69;;;21.99;39.56
57574;BME280;68988;49.000;21.242;2023-11-19T06:51:57;98723.75;;;22.01;39.27
57574;BME280;68988;49.000;21.242;2023-11-19T06:54:22;98720.28;;;22.00;39.47
57574;BME280;68988;49.000;21.242;2023-11-19T06:56:48;98707.75;;;22.01;39.53
57574;BME280;68988;49.000;21.242;2023-11-19T06:59:14;98705.06;;;22.01;39.28
57574;BME280;68988;49.000;21.242;2023-11-19T07:01:39;98709.09;;;22.04;39.33
57574;BME280;68988;49.000;21.242;2023-11-19T07:04:11;98712.81;;;22.03;39.33
57574;BME280;68988;49.000;21.242;2023-11-19T07:06:37;98717.91;;;22.04;39.25
57574;BME280;68988;49.000;21.242;2023-11-19T07:09:04;98717.63;;;22.00;39.33
57574;BME280;68988;49.000;21.242;2023-11-19T07:11:38;98719.78;;;22.04;39.36
57574;BME280;68988;49.000;21.242;2023-11-19T07:14:05;98723.25;;;22.04;39.20
57574;BME280;68988;49.000;21.242;2023-11-19T07:16:32;98733.13;;;22.04;39.21
57574;BME280;68988;49.000;21.242;2023-11-19T07:18:58;98733.13;;;22.04;39.45
57574;BME280;68988;49.000;21.242;2023-11-19T07:21:24;98739.84;;;22.06;39.27
57574;BME280;68988;49.000;21.242;2023-11-19T07:23:50;98736.34;;;22.06;39.28
57574;BME280;68988;49.000;21.242;2023-11-19T07:26:17;98737.97;;;22.07;39.17
57574;BME280;68988;49.000;21.242;2023-11-19T07:28:42;98740.66;;;22.07;39.01
57574;BME280;68988;49.000;21.242;2023-11-19T07:31:10;98749.72;;;22.06;39.33
57574;BME280;68988;49.000;21.242;2023-11-19T07:33:35;98724.88;;;22.05;39.19
57574;BME280;68988;49.000;21.242;2023-11-19T07:36:01;98717.66;;;22.06;39.22
57574;BME280;68988;49.000;21.242;2023-11-19T07:38:26;98724.09;;;22.05;39.34
57574;BME280;68988;49.000;21.242;2023-11-19T07:40:52;98721.97;;;22.07;39.26
57574;BME280;68988;49.000;21.242;2023-11-19T07:43:17;98710.47;;;22.06;39.24
57574;BME280;68988;49.000;21.242;2023-11-19T07:45:43;98705.94;;;22.07;39.33
57574;BME280;68988;49.000;21.242;2023-11-19T07:48:11;98691.53;;;22.08;39.34
57574;BME280;68988;49.000;21.242;2023-11-19T07:50:38;98682.44;;;22.09;39.16
57574;BME280;68988;49.000;21.242;2023-11-19T07:53:06;98681.66;;;22.08;39.31
57574;BME280;68988;49.000;21.242;2023-11-19T07:55:31;98684.84;;;22.10;39.29
57574;BME280;68988;49.000;21.242;2023-11-19T07:57:56;98678.72;;;22.10;39.30
57574;BME280;68988;49.000;21.242;2023-11-19T08:00:22;98667.00;;;22.11;39.11
57574;BME280;68988;49.000;21.242;2023-11-19T08:02:47;98664.31;;;22.11;39.28
57574;BME280;68988;49.000;21.242;2023-11-19T08:05:12;98659.78;;;22.11;39.19
57574;BME280;68988;49.000;21.242;2023-11-19T08:07:38;98650.72;;;22.12;39.18
57574;BME280;68988;49.000;21.242;2023-11-19T08:10:04;98645.13;;;22.14;39.14
57574;BME280;68988;49.000;21.242;2023-11-19T08:12:31;98657.66;;;22.13;39.03
57574;BME280;68988;49.000;21.242;2023-11-19T08:14:56;98648.34;;;22.16;39.24
57574;BME280;68988;49.000;21.242;2023-11-19T08:17:24;98651.78;;;22.16;39.01
57574;BME280;68988;49.000;21.242;2023-11-19T08:19:52;98643.03;;;22.21;39.00
57574;BME280;68988;49.000;21.242;2023-11-19T08:22:17;98634.22;;;22.21;39.09
57574;BME280;68988;49.000;21.242;2023-11-19T08:24:43;98634.47;;;22.19;39.00
57574;BME280;68988;49.000;21.242;2023-11-19T08:27:10;98633.41;;;22.20;39.11
57574;BME280;68988;49.000;21.242;2023-11-19T08:29:35;98624.84;;;22.18;38.97
57574;BME280;68988;49.000;21.242;2023-11-19T08:32:01;98626.19;;;22.21;39.04
57574;BME280;68988;49.000;21.242;2023-11-19T08:34:28;98633.41;;;22.20;38.92
57574;BME280;68988;49.000;21.242;2023-11-19T08:36:54;98627.81;;;22.22;38.82
57574;BME280;68988;49.000;21.242;2023-11-19T08:39:19;98628.63;;;22.22;38.91
57574;BME280;68988;49.000;21.242;2023-11-19T08:41:46;98637.44;;;22.23;38.82
57574;BME280;68988;49.000;21.242;2023-11-19T08:44:12;98644.63;;;22.22;38.98
57574;BME280;68988;49.000;21.242;2023-11-19T08:46:38;98643.84;;;22.22;39.51
57574;BME280;68988;49.000;21.242;2023-11-19T08:49:05;98649.97;;;22.22;38.99
57574;BME280;68988;49.000;21.242;2023-11-19T08:51:30;98642.22;;;22.21;38.94
57574;BME280;68988;49.000;21.242;2023-11-19T08:53:56;98628.63;;;22.22;39.11
57574;BME280;68988;49.000;21.242;2023-11-19T08:56:22;98649.72;;;22.24;38.91
57574;BME280;68988;49.000;21.242;2023-11-19T08:58:48;98640.91;;;22.23;39.25
57574;BME280;68988;49.000;21.242;2023-11-19T09:01:13;98626.47;;;22.24;38.96
57574;BME280;68988;49.000;21.242;2023-11-19T09:03:38;98628.34;;;22.24;38.91
57574;BME280;68988;49.000;21.242;2023-11-19T09:06:04;98627.31;;;22.25;38.96
57574;BME280;68988;49.000;21.242;2023-11-19T09:08:29;98639.59;;;22.26;38.85
57574;BME280;68988;49.000;21.242;2023-11-19T09:10:54;98644.13;;;22.25;38.81
57574;BME280;68988;49.000;21.242;2023-11-19T09:13:20;98645.50;;;22.28;38.79
57574;BME280;68988;49.000;21.242;2023-11-19T09:15:45;98643.09;;;22.26;38.89
57574;BME280;68988;49.000;21.242;2023-11-19T09:18:10;98629.72;;;22.26;38.80
57574;BME280;68988;49.000;21.242;2023-11-19T09:20:36;98609.94;;;22.27;38.73
57574;BME280;68988;49.000;21.242;2023-11-19T09:23:06;98602.44;;;22.24;39.03
57574;BME280;68988;49.000;21.242;2023-11-19T09:25:33;98589.09;;;22.24;38.93
57574;BME280;68988;49.000;21.242;2023-11-19T09:27:59;98575.47;;;22.26;38.79
57574;BME280;68988;49.000;21.242;2023-11-19T09:30:24;98580.56;;;22.27;38.86
57574;BME280;68988;49.000;21.242;2023-11-19T09:32:49;98568.03;;;22.28;38.76
57574;BME280;68988;49.000;21.242;2023-11-19T09:35:15;98578.16;;;22.26;39.19
57574;BME280;68988;49.000;21.242;2023-11-19T09:37:43;98575.22;;;22.27;38.85
57574;BME280;68988;49.000;21.242;2023-11-19T09:40:08;98582.44;;;22.27;38.75
57574;BME280;68988;49.000;21.242;2023-11-19T09:42:43;98569.88;;;22.27;39.02
57574;BME280;68988;49.000;21.242;2023-11-19T09:45:14;98583.22;;;22.27;38.85
57574;BME280;68988;49.000;21.242;2023-11-19T09:47:43;98581.13;;;22.29;38.91
57574;BME280;68988;49.000;21.242;2023-11-19T09:50:10;98567.78;;;22.29;38.67
57574;BME280;68988;49.000;21.242;2023-11-19T09:52:39;98570.44;;;22.29;38.76
57574;BME280;68988;49.000;21.242;2023-11-19T09:55:04;98570.44;;;22.29;38.94
57574;BME280;68988;49.000;21.242;2023-11-19T09:57:32;98578.47;;;22.29;38.85
57574;BME280;68988;49.000;21.242;2023-11-19T10:00:00;98575.78;;;22.29;38.89
57574;BME280;68988;49.000;21.242;2023-11-19T10:02:26;98595.53;;;22.28;38.66
57574;BME280;68988;49.000;21.242;2023-11-19T10:04:54;98605.44;;;22.28;38.86
57574;BME280;68988;49.000;21.242;2023-11-19T10:07:20;98595.53;;;22.28;38.95
57574;BME280;68988;49.000;21.242;2023-11-19T10:09:46;98588.84;;;22.26;38.89
57574;BME280;68988;49.000;21.242;2023-11-19T10:12:12;98579.78;;;22.27;38.79
57574;BME280;68988;49.000;21.242;2023-11-19T10:14:37;98570.13;;;22.26;38.59
57574;BME280;68988;49.000;21.242;2023-11-19T10:17:07;98552.00;;;22.28;38.63
57574;BME280;68988;49.000;21.242;2023-11-19T10:19:32;98535.72;;;22.29;38.88
57574;BME280;68988;49.000;21.242;2023-11-19T10:22:04;98526.09;;;22.28;38.94
57574;BME280;68988;49.000;21.242;2023-11-19T10:24:33;98522.38;;;22.29;38.71
57574;BME280;68988;49.000;21.242;2023-11-19T10:26:59;98515.41;;;22.28;39.02
57574;BME280;68988;49.000;21.242;2023-11-19T10:29:25;98507.94;;;22.30;38.71
57574;BME280;68988;49.000;21.242;2023-11-19T10:31:57;98503.97;;;22.33;38.80
57574;BME280;68988;49.000;21.242;2023-11-19T10:34:27;98502.34;;;22.32;38.70
57574;BME280;68988;49.000;21.242;2023-11-19T10:36:52;98504.72;;;22.28;38.75
57574;BME280;68988;49.000;21.242;2023-11-19T10:39:18;98510.06;;;22.28;38.79
57574;BME280;68988;49.000;21.242;2023-11-19T10:41:43;98516.78;;;22.31;38.87
57574;BME280;68988;49.000;21.242;2023-11-19T10:44:09;98515.41;;;22.28;38.75
57574;BME280;68988;49.000;21.242;2023-11-19T10:46:39;98507.94;;;22.30;38.91
57574;BME280;68988;49.000;21.242;2023-11-19T10:49:05;98512.25;;;22.31;38.79
57574;BME280;68988;49.000;21.242;2023-11-19T10:51:32;98514.91;;;22.31;38.70
57574;BME280;68988;49.000;21.242;2023-11-19T10:54:02;98502.91;;;22.34;38.83
57574;BME280;68988;49.000;21.242;2023-11-19T10:56:31;98505.03;;;22.32;38.82
57574;BME280;68988;49.000;21.242;2023-11-19T10:58:59;98501.50;;;22.26;38.79
57574;BME280;68988;49.000;21.242;2023-11-19T11:01:27;98499.91;;;22.25;38.73
57574;BME280;68988;49.000;21.242;2023-11-19T11:03:59;98489.72;;;22.22;38.90
57574;BME280;68988;49.000;21.242;2023-11-19T11:06:26;98488.69;;;22.23;39.00
57574;BME280;68988;49.000;21.242;2023-11-19T11:08:52;98488.69;;;22.23;38.75
57574;BME280;68988;49.000;21.242;2023-11-19T11:11:19;98502.81;;;22.24;38.96
57574;BME280;68988;49.000;21.242;2023-11-19T11:13:49;98495.31;;;22.21;38.80
57574;BME280;68988;49.000;21.242;2023-11-19T11:16:18;98491.34;;;22.23;38.94
57574;BME280;68988;49.000;21.242;2023-11-19T11:18:44;98487.59;;;22.24;38.78
57574;BME280;68988;49.000;21.242;2023-11-19T11:21:16;98481.72;;;22.22;38.69
57574;BME280;68988;49.000;21.242;2023-11-19T11:29:41;98472.09;;;22.21;39.06
57574;BME280;68988;49.000;21.242;2023-11-19T11:32:26;98468.63;;;22.21;39.04
57574;BME280;68988;49.000;21.242;2023-11-19T11:35:24;98470.50;;;22.20;38.99
57574;BME280;68988;49.000;21.242;2023-11-19T11:38:00;98477.44;;;22.21;38.96
57574;BME280;68988;49.000;21.242;2023-11-19T11:40:25;98470.50;;;22.20;38.92
57574;BME280;68988;49.000;21.242;2023-11-19T11:42:51;98458.47;;;22.23;38.97
57574;BME280;68988;49.000;21.242;2023-11-19T11:45:18;98452.06;;;22.24;38.74
57574;BME280;68988;49.000;21.242;2023-11-19T11:50:20;98443.28;;;22.23;38.84
57574;BME280;68988;49.000;21.242;2023-11-19T11:55:34;98442.44;;;22.23;38.98
57574;BME280;68988;49.000;21.242;2023-11-19T11:58:01;98440.03;;;22.21;38.86
57574;BME280;68988;49.000;21.242;2023-11-19T12:00:27;98432.59;;;22.23;38.93
57574;BME280;68988;49.000;21.242;2023-11-19T12:03:00;98427.25;;;22.23;39.05
57574;BME280;68988;49.000;21.242;2023-11-19T12:05:26;98418.16;;;22.24;38.83
57574;BME280;68988;49.000;21.242;2023-11-19T12:08:11;98421.91;;;22.23;38.99
57574;BME280;68988;49.000;21.242;2023-11-19T12:11:06;98402.13;;;22.24;38.83
57574;BME280;68988;49.000;21.242;2023-11-19T12:14:02;98406.66;;;22.24;38.90
57574;BME280;68988;49.000;21.242;2023-11-19T12:16:28;98404.78;;;22.19;38.81
57574;BME280;68988;49.000;21.242;2023-11-19T12:18:56;98398.66;;;22.18;38.81
57574;BME280;68988;49.000;21.242;2023-11-19T12:21:28;98398.38;;;22.20;38.82
57574;BME280;68988;49.000;21.242;2023-11-19T12:23:55;98385.28;;;22.18;38.86
57574;BME280;68988;49.000;21.242;2023-11-19T12:26:35;98372.72;;;22.19;38.85
57574;BME280;68988;49.000;21.242;2023-11-19T12:29:01;98359.13;;;22.21;38.83
57574;BME280;68988;49.000;21.242;2023-11-19T12:31:29;98350.84;;;22.22;39.06
57574;BME280;68988;49.000;21.242;2023-11-19T12:33:54;98347.63;;;22.20;38.81
57574;BME280;68988;49.000;21.242;2023-11-19T12:36:20;98342.03;;;22.22;39.05
57574;BME280;68988;49.000;21.242;2023-11-19T12:38:45;98333.19;;;22.21;38.78
57574;BME280;68988;49.000;21.242;2023-11-19T12:41:11;98334.81;;;22.22;38.90
57574;BME280;68988;49.000;21.242;2023-11-19T12:43:38;98328.69;;;22.22;38.88
57574;BME280;68988;49.000;21.242;2023-11-19T12:46:17;98316.13;;;22.22;38.88
57574;BME280;68988;49.000;21.242;2023-11-19T12:48:42;98311.84;;;22.21;38.91
57574;BME280;68988;49.000;21.242;2023-11-19T12:51:07;98312.38;;;22.18;39.07
57574;BME280;68988;49.000;21.242;2023-11-19T12:53:47;98313.44;;;22.22;38.91
57574;BME280;68988;49.000;21.242;2023-11-19T12:56:14;98315.59;;;22.20;38.86
57574;BME280;68988;49.000;21.242;2023-11-19T12:58:39;98311.84;;;22.21;38.39
57574;BME280;68988;49.000;21.242;2023-11-19T13:01:06;98305.69;;;22.21;38.78
57574;BME280;68988;49.000;21.242;2023-11-19T13:03:34;98293.41;;;22.20;38.79